Time;durP1;ratioP1;P1;durP2;ratioP2;P2;SDS_P1;SDS_P2;PMS_P1;PMS_P2;Temp;Humidity;BMP_temperature;BMP_pressure;BME280_temperature;BME280_humidity;BME280_pressure;Samples;Min_cycle;Max_cycle;Signal;HPM_P1;HPM_P2
2023/01/30 00:01:41;;;;;;;17.17;13.57;;;1.00;99.90;;;;;;5033045;28;20229;-71
2023/01/30 00:04:06;;;;;;;19.63;14.23;;;1.10;99.90;;;;;;5033014;28;20664;-70
2023/01/30 00:06:33;;;;;;;19.40;13.90;;;1.10;99.90;;;;;;5032719;28;20425;-70
2023/01/30 00:08:58;;;;;;;17.30;13.20;;;1.10;99.90;;;;;;5033407;28;20164;-68
2023/01/30 00:11:24;;;;;;;21.83;16.40;;;1.00;99.90;;;;;;5031567;28;20588;-70
2023/01/30 00:13:50;;;;;;;18.70;14.47;;;1.10;99.90;;;;;;5032711;28;20257;-70
2023/01/30 00:16:17;;;;;;;20.57;14.07;;;1.10;99.90;;;;;;5032556;28;20509;-70
2023/01/30 00:18:43;;;;;;;18.40;14.50;;;1.20;99.90;;;;;;5032835;28;20459;-70
2023/01/30 00:21:12;;;;;;;16.70;12.93;;;1.20;99.90;;;;;;5048251;28;20501;-70
2023/01/30 00:23:38;;;;;;;18.60;13.43;;;1.20;99.90;;;;;;5050913;28;20476;-70
2023/01/30 00:26:05;;;;;;;18.20;14.00;;;1.10;99.90;;;;;;5040942;28;20445;-70
2023/01/30 00:28:30;;;;;;;17.70;13.77;;;1.10;99.90;;;;;;5035008;28;20398;-70
2023/01/30 00:30:56;;;;;;;19.87;15.40;;;1.10;99.90;;;;;;5036448;28;20777;-70
2023/01/30 00:33:24;;;;;;;19.37;14.63;;;1.00;99.90;;;;;;5034991;28;20249;-70
2023/01/30 00:35:52;;;;;;;20.10;15.63;;;1.20;99.90;;;;;;5036041;28;20207;-71
2023/01/30 00:38:18;;;;;;;16.60;13.70;;;1.30;99.90;;;;;;5036196;28;20441;-70
2023/01/30 00:40:43;;;;;;;19.70;15.40;;;1.40;99.90;;;;;;5035880;28;20457;-71
2023/01/30 00:48:43;;;;;;;17.60;13.40;;;1.20;99.90;;;;;;5036749;28;20801;-70
2023/01/30 00:51:09;;;;;;;20.90;15.30;;;1.30;99.90;;;;;;5033850;28;20504;-70
2023/01/30 00:53:35;;;;;;;22.87;16.50;;;1.30;99.90;;;;;;5036100;28;20519;-71
2023/01/30 00:56:01;;;;;;;22.17;16.27;;;1.30;99.90;;;;;;5034705;28;20440;-70
2023/01/30 00:58:26;;;;;;;19.80;14.97;;;1.10;99.90;;;;;;5036232;28;20170;-71
2023/01/30 01:00:52;;;;;;;21.63;16.00;;;0.80;99.90;;;;;;5035290;28;20461;-71
2023/01/30 01:03:19;;;;;;;20.57;15.90;;;0.80;99.90;;;;;;5035712;28;20221;-71
2023/01/30 01:05:44;;;;;;;20.00;14.30;;;0.90;99.90;;;;;;5035774;28;20426;-71
2023/01/30 01:08:10;;;;;;;17.90;13.90;;;0.90;99.90;;;;;;5035858;28;20408;-71
2023/01/30 01:10:36;;;;;;;17.77;15.07;;;0.70;99.90;;;;;;5034728;28;20422;-70
2023/01/30 01:13:02;;;;;;;14.80;13.20;;;0.80;99.90;;;;;;5034579;28;20159;-70
2023/01/30 01:15:28;;;;;;;19.17;15.37;;;1.00;99.90;;;;;;5035736;28;20184;-71
2023/01/30 01:17:54;;;;;;;19.03;14.70;;;1.20;99.90;;;;;;5036208;28;20171;-70
2023/01/30 01:20:20;;;;;;;17.50;13.83;;;1.30;99.90;;;;;;5035787;28;20452;-70
2023/01/30 01:22:49;;;;;;;19.20;14.90;;;1.20;99.90;;;;;;5034595;28;20437;-70
2023/01/30 01:25:15;;;;;;;18.97;13.90;;;1.20;99.90;;;;;;5035477;28;20468;-72
2023/01/30 01:27:41;;;;;;;18.00;14.50;;;1.20;99.90;;;;;;5035444;28;20400;-70
2023/01/30 01:30:07;;;;;;;17.57;14.50;;;1.10;99.90;;;;;;5035500;28;20436;-70
2023/01/30 01:32:34;;;;;;;16.67;13.87;;;1.10;99.90;;;;;;5035305;28;20182;-70
2023/01/30 01:34:59;;;;;;;16.60;13.90;;;1.10;99.90;;;;;;5035374;28;20826;-71
2023/01/30 01:37:25;;;;;;;18.00;13.57;;;1.10;99.90;;;;;;5035278;28;20483;-69
2023/01/30 01:42:37;;;;;;;18.40;14.50;;;1.00;99.90;;;;;;5034634;28;20213;-70
2023/01/30 01:45:10;;;;;;;16.80;14.07;;;1.00;99.90;;;;;;5033654;28;20445;-69
2023/01/30 01:47:39;;;;;;;17.73;14.83;;;0.90;99.90;;;;;;5035084;28;20394;-70
2023/01/30 01:50:11;;;;;;;19.93;13.23;;;0.80;99.90;;;;;;5034066;28;20418;-70
2023/01/30 01:52:37;;;;;;;19.23;14.60;;;0.90;99.90;;;;;;5035175;28;20397;-70
2023/01/30 01:55:06;;;;;;;16.37;12.77;;;0.80;99.90;;;;;;5033642;28;20796;-70
2023/01/30 01:57:50;;;;;;;20.90;15.60;;;0.90;99.90;;;;;;5035136;28;20414;-71
2023/01/30 02:00:18;;;;;;;17.10;13.23;;;1.00;99.90;;;;;;5034263;28;20448;-71
2023/01/30 02:02:58;;;;;;;18.43;14.17;;;1.10;99.90;;;;;;5033930;28;20475;-71
2023/01/30 02:05:31;;;;;;;16.70;13.43;;;1.00;99.90;;;;;;5034754;28;20939;-71
2023/01/30 02:08:07;;;;;;;17.07;13.50;;;1.00;99.90;;;;;;5032650;28;20428;-72
2023/01/30 02:10:58;;;;;;;20.23;14.80;;;1.00;99.90;;;;;;5033804;28;20782;-71
2023/01/30 02:13:25;;;;;;;17.53;14.40;;;0.90;99.90;;;;;;5033172;28;20428;-71
2023/01/30 02:15:51;;;;;;;19.30;14.50;;;0.90;99.90;;;;;;5034244;28;20495;-70
2023/01/30 02:18:17;;;;;;;18.53;14.27;;;1.00;99.90;;;;;;5034950;28;20802;-69
2023/01/30 02:21:20;;;;;;;15.77;13.93;;;1.10;99.90;;;;;;5040290;28;20416;-69
2023/01/30 02:24:15;;;;;;;16.77;13.60;;;1.10;99.90;;;;;;5054085;28;20405;-70
2023/01/30 02:27:07;;;;;;;17.30;14.07;;;1.00;99.90;;;;;;5042581;28;21059;-69
2023/01/30 02:29:32;;;;;;;18.90;13.30;;;0.80;99.90;;;;;;5031420;28;20967;-70
2023/01/30 02:32:18;;;;;;;17.63;12.90;;;0.70;99.90;;;;;;5033931;28;20406;-69
2023/01/30 02:35:01;;;;;;;19.23;14.60;;;0.70;99.90;;;;;;5033497;28;20226;-71
2023/01/30 02:37:53;;;;;;;18.20;15.00;;;0.70;99.90;;;;;;5033919;28;20483;-70
2023/01/30 02:40:22;;;;;;;19.90;14.57;;;0.70;99.90;;;;;;5034133;28;20386;-70
2023/01/30 02:42:59;;;;;;;18.07;14.17;;;0.70;99.90;;;;;;5033835;28;20524;-71
2023/01/30 02:45:48;;;;;;;19.67;14.83;;;0.80;99.90;;;;;;5033529;28;20421;-70
2023/01/30 02:48:38;;;;;;;18.60;13.80;;;0.70;99.90;;;;;;5033128;28;20510;-70
2023/01/30 02:51:10;;;;;;;20.00;16.23;;;0.60;99.90;;;;;;5032323;28;20965;-70
2023/01/30 02:53:36;;;;;;;22.27;14.90;;;0.60;99.90;;;;;;5033069;28;20484;-70
2023/01/30 02:56:03;;;;;;;16.73;14.00;;;0.70;99.90;;;;;;5033614;28;20429;-70
2023/01/30 02:58:34;;;;;;;19.90;15.00;;;0.80;99.90;;;;;;5032408;28;20456;-70
2023/01/30 03:01:15;;;;;;;19.50;16.10;;;0.80;99.90;;;;;;5033796;28;20946;-70
2023/01/30 03:04:30;;;;;;;17.83;14.60;;;0.50;99.90;;;;;;5032328;28;20425;-70
2023/01/30 03:07:04;;;;;;;18.90;14.63;;;0.50;99.90;;;;;;5033520;28;20456;-71
2023/01/30 03:09:56;;;;;;;19.03;13.57;;;0.50;99.90;;;;;;5033523;28;20410;-70
2023/01/30 03:12:22;;;;;;;15.73;13.97;;;0.50;99.90;;;;;;5030144;28;20412;-69
2023/01/30 03:14:56;;;;;;;19.07;14.00;;;0.40;99.90;;;;;;5032538;28;20942;-70
2023/01/30 03:17:25;;;;;;;19.13;14.10;;;0.50;99.90;;;;;;5033033;28;20657;-70
2023/01/30 03:19:53;;;;;;;18.07;14.60;;;0.50;99.90;;;;;;5033224;28;20404;-70
2023/01/30 03:22:19;;;;;;;19.87;14.80;;;0.40;99.90;;;;;;5031104;28;20924;-70
2023/01/30 03:24:45;;;;;;;18.80;15.13;;;0.50;99.90;;;;;;5033329;28;20820;-70
2023/01/30 03:27:12;;;;;;;19.40;15.37;;;0.50;99.90;;;;;;5033168;28;20409;-70
2023/01/30 03:29:38;;;;;;;17.90;14.37;;;0.40;99.90;;;;;;5033225;28;20166;-70
2023/01/30 03:32:04;;;;;;;18.13;14.77;;;0.40;99.90;;;;;;5032763;28;20480;-70
2023/01/30 03:34:29;;;;;;;20.63;14.90;;;0.50;99.90;;;;;;5033129;28;20463;-71
2023/01/30 03:36:55;;;;;;;14.87;13.27;;;0.50;99.90;;;;;;5032835;28;20437;-71
2023/01/30 03:39:23;;;;;;;19.77;13.47;;;0.50;99.90;;;;;;5031810;28;20210;-70
2023/01/30 03:41:49;;;;;;;19.27;12.93;;;0.60;99.90;;;;;;5032926;28;20199;-70
2023/01/30 03:44:15;;;;;;;17.47;13.07;;;0.60;99.90;;;;;;5033256;28;20409;-70
2023/01/30 03:46:40;;;;;;;17.17;13.30;;;0.60;99.90;;;;;;5032583;28;20422;-71
2023/01/30 03:49:06;;;;;;;16.30;12.67;;;0.70;99.90;;;;;;5031840;28;20179;-70
2023/01/30 03:51:31;;;;;;;20.40;11.67;;;0.80;99.90;;;;;;5032846;28;20178;-71
2023/01/30 03:53:57;;;;;;;15.53;12.77;;;0.90;99.90;;;;;;5032995;28;20175;-71
2023/01/30 03:56:22;;;;;;;15.13;12.67;;;0.90;99.90;;;;;;5031467;28;20192;-71
2023/01/30 03:58:48;;;;;;;15.90;13.00;;;0.90;99.90;;;;;;5032907;28;20171;-71
2023/01/30 04:01:13;;;;;;;14.43;11.47;;;1.00;99.90;;;;;;5033002;28;20194;-71
2023/01/30 04:03:39;;;;;;;16.20;12.00;;;1.10;99.90;;;;;;5035264;28;20643;-71
2023/01/30 04:06:04;;;;;;;15.17;12.40;;;1.10;99.90;;;;;;5036740;28;20189;-71
2023/01/30 04:08:30;;;;;;;14.80;11.57;;;1.10;99.90;;;;;;5036629;28;20167;-71
2023/01/30 04:10:55;;;;;;;13.37;11.03;;;1.30;99.90;;;;;;5035811;28;20221;-70
2023/01/30 04:13:21;;;;;;;15.17;12.60;;;1.40;99.90;;;;;;5047353;28;20170;-71
2023/01/30 04:15:47;;;;;;;16.27;12.27;;;1.40;99.90;;;;;;5048536;28;20696;-68
2023/01/30 04:18:12;;;;;;;15.77;11.13;;;1.50;99.90;;;;;;5035293;28;20174;-71
2023/01/30 04:20:38;;;;;;;16.10;10.80;;;1.50;99.90;;;;;;5036895;28;20220;-70
2023/01/30 04:23:03;;;;;;;13.57;10.90;;;1.60;99.90;;;;;;5035817;28;20159;-70
2023/01/30 04:25:29;;;;;;;14.60;11.57;;;1.60;99.90;;;;;;5036247;28;20674;-70
2023/01/30 04:27:54;;;;;;;15.87;10.90;;;1.70;99.90;;;;;;5036858;28;20164;-70
2023/01/30 04:30:20;;;;;;;14.60;11.17;;;1.70;99.90;;;;;;5039913;28;20719;-70
2023/01/30 04:32:46;;;;;;;13.67;11.10;;;1.70;99.90;;;;;;5036438;28;20181;-71
2023/01/30 04:35:11;;;;;;;13.90;11.00;;;1.60;99.90;;;;;;5035747;28;20187;-71
2023/01/30 04:37:37;;;;;;;11.30;9.93;;;1.60;99.90;;;;;;5036230;28;20171;-70
2023/01/30 04:40:03;;;;;;;12.67;10.90;;;1.70;99.90;;;;;;5035988;28;20638;-70
2023/01/30 04:42:28;;;;;;;13.70;11.07;;;1.70;99.90;;;;;;5035894;28;20629;-70
2023/01/30 04:44:54;;;;;;;14.43;10.30;;;1.70;99.90;;;;;;5035657;28;20402;-70
2023/01/30 04:47:19;;;;;;;12.07;10.47;;;1.70;99.90;;;;;;5048779;28;20167;-70
2023/01/30 04:49:45;;;;;;;12.20;10.30;;;1.90;99.90;;;;;;5056023;28;20228;-71
2023/01/30 04:52:10;;;;;;;17.17;11.47;;;1.90;99.90;;;;;;5040856;28;20180;-70
2023/01/30 04:54:36;;;;;;;11.20;9.20;;;2.00;99.90;;;;;;5034758;28;20171;-70
2023/01/30 04:57:02;;;;;;;12.83;9.80;;;2.10;99.90;;;;;;5035169;28;20777;-71
2023/01/30 04:59:27;;;;;;;11.30;10.00;;;2.10;99.90;;;;;;5035592;28;20541;-71
2023/01/30 05:01:54;;;;;;;12.30;10.70;;;2.10;99.90;;;;;;5034269;28;20544;-70
2023/01/30 05:04:19;;;;;;;13.87;9.40;;;2.20;99.90;;;;;;5035010;28;20171;-70
2023/01/30 05:06:45;;;;;;;13.23;10.03;;;2.10;99.90;;;;;;5035529;28;20988;-69
2023/01/30 05:09:10;;;;;;;11.43;9.50;;;2.00;99.90;;;;;;5035866;28;20170;-69
2023/01/30 05:11:37;;;;;;;11.13;9.50;;;2.00;99.90;;;;;;5035558;28;20520;-70
2023/01/30 05:14:02;;;;;;;10.33;8.90;;;2.00;99.90;;;;;;5034952;28;20171;-70
2023/01/30 05:16:28;;;;;;;12.60;9.40;;;2.20;99.90;;;;;;5034129;28;20806;-70
2023/01/30 05:18:54;;;;;;;11.73;9.27;;;2.30;99.90;;;;;;5034155;28;20258;-70
2023/01/30 05:21:22;;;;;;;12.40;8.87;;;2.40;99.90;;;;;;5035208;28;20221;-70
2023/01/30 05:23:48;;;;;;;12.03;8.93;;;2.40;99.90;;;;;;5034639;28;20661;-70
2023/01/30 05:26:14;;;;;;;11.90;8.90;;;2.30;99.90;;;;;;5035179;28;20422;-70
2023/01/30 05:28:41;;;;;;;9.63;8.37;;;2.30;99.90;;;;;;5035200;28;20402;-70
2023/01/30 05:31:12;;;;;;;12.20;10.07;;;2.30;99.90;;;;;;5035192;28;20414;-71
2023/01/30 05:33:39;;;;;;;17.73;13.77;;;2.20;99.90;;;;;;5035425;28;20406;-69
2023/01/30 05:36:05;;;;;;;11.23;9.73;;;2.10;99.90;;;;;;5035058;28;20511;-70
2023/01/30 05:38:31;;;;;;;14.87;11.83;;;2.10;99.90;;;;;;5034584;28;20410;-70
2023/01/30 05:41:15;;;;;;;14.70;11.73;;;2.20;99.90;;;;;;5035119;28;20544;-71
2023/01/30 05:43:41;;;;;;;11.47;9.53;;;2.30;99.90;;;;;;5035339;28;20218;-70
2023/01/30 05:46:08;;;;;;;13.03;10.30;;;2.00;99.90;;;;;;5034802;28;20509;-70
2023/01/30 05:48:34;;;;;;;10.77;9.47;;;2.00;99.90;;;;;;5035319;28;20630;-71
2023/01/30 05:51:00;;;;;;;12.83;10.10;;;2.00;99.90;;;;;;5034449;28;20418;-70
2023/01/30 05:53:33;;;;;;;13.87;10.40;;;2.10;99.90;;;;;;5034238;28;20167;-70
2023/01/30 05:56:01;;;;;;;12.27;10.13;;;2.10;99.90;;;;;;5034992;28;20426;-70
2023/01/30 05:58:27;;;;;;;12.23;10.17;;;2.10;99.90;;;;;;5033477;28;20423;-70
2023/01/30 06:00:53;;;;;;;14.37;10.20;;;2.10;99.90;;;;;;5034674;28;20403;-70
2023/01/30 06:03:19;;;;;;;12.17;10.90;;;2.20;99.90;;;;;;5035051;28;20923;-70
2023/01/30 06:05:45;;;;;;;14.07;11.10;;;2.20;99.90;;;;;;5033773;28;20453;-69
2023/01/30 06:08:11;;;;;;;11.17;9.93;;;2.00;99.90;;;;;;5034442;28;20402;-71
2023/01/30 06:10:36;;;;;;;15.60;11.50;;;2.10;99.90;;;;;;5034459;28;20165;-71
2023/01/30 06:13:02;;;;;;;14.23;10.63;;;2.10;99.90;;;;;;5038606;28;20171;-71
2023/01/30 06:15:28;;;;;;;11.97;9.67;;;2.00;99.90;;;;;;5034160;28;20186;-70
2023/01/30 06:17:53;;;;;;;14.53;10.07;;;1.90;99.90;;;;;;5034571;28;20793;-70
2023/01/30 06:20:19;;;;;;;12.20;9.57;;;2.00;99.90;;;;;;5033655;28;20160;-71
2023/01/30 06:22:46;;;;;;;10.83;9.73;;;2.00;99.90;;;;;;5034080;28;20195;-70
2023/01/30 06:25:11;;;;;;;12.33;9.10;;;2.00;99.90;;;;;;5033620;28;20790;-70
2023/01/30 06:27:37;;;;;;;15.57;11.27;;;2.10;99.90;;;;;;5035961;28;20406;-70
2023/01/30 06:30:03;;;;;;;14.13;11.13;;;1.90;99.90;;;;;;5034145;28;20183;-70
2023/01/30 06:32:29;;;;;;;32.43;20.93;;;2.00;99.90;;;;;;5034027;28;20168;-70
2023/01/30 06:34:54;;;;;;;65.57;38.57;;;1.90;99.90;;;;;;5033161;28;20497;-70
2023/01/30 06:37:20;;;;;;;125.83;64.83;;;2.00;99.90;;;;;;5033775;28;20660;-71
2023/01/30 06:39:45;;;;;;;11.53;9.43;;;1.80;99.90;;;;;;5033796;28;20180;-69
2023/01/30 06:42:11;;;;;;;12.23;9.90;;;1.90;99.90;;;;;;5033686;28;20207;-70
2023/01/30 06:44:36;;;;;;;27.07;17.00;;;1.90;99.90;;;;;;5034110;28;20171;-71
2023/01/30 06:47:02;;;;;;;14.30;10.40;;;2.00;99.90;;;;;;5033995;28;20234;-71
2023/01/30 06:49:27;;;;;;;16.33;11.77;;;2.00;99.90;;;;;;5033074;28;20176;-71
2023/01/30 06:51:53;;;;;;;15.50;11.93;;;2.00;99.90;;;;;;5033149;28;20254;-70
2023/01/30 06:54:18;;;;;;;14.60;10.50;;;1.90;99.90;;;;;;5033524;28;20175;-70
2023/01/30 06:56:44;;;;;;;13.33;11.07;;;1.90;99.90;;;;;;5032605;28;20223;-71
2023/01/30 06:59:09;;;;;;;13.57;11.37;;;2.10;99.90;;;;;;5032332;28;20179;-70
2023/01/30 07:01:36;;;;;;;11.00;9.00;;;2.10;99.90;;;;;;5032218;28;20206;-70
2023/01/30 07:04:01;;;;;;;14.60;10.63;;;2.20;99.90;;;;;;5033420;28;20190;-71
2023/01/30 07:06:27;;;;;;;16.47;12.60;;;2.10;99.90;;;;;;5033383;28;20460;-70
2023/01/30 07:08:55;;;;;;;11.63;9.90;;;2.10;99.90;;;;;;5033181;28;20164;-70
2023/01/30 07:11:20;;;;;;;13.60;10.60;;;2.10;99.90;;;;;;5033366;28;20194;-70
2023/01/30 07:13:46;;;;;;;11.40;9.43;;;2.20;99.90;;;;;;5032674;28;20465;-71
2023/01/30 07:16:11;;;;;;;13.07;10.53;;;2.30;99.90;;;;;;5032404;28;20206;-71
2023/01/30 07:18:37;;;;;;;11.43;9.33;;;2.40;99.90;;;;;;5032975;28;20171;-70
2023/01/30 07:21:03;;;;;;;13.67;10.40;;;2.30;99.90;;;;;;5032803;28;20195;-70
2023/01/30 07:23:28;;;;;;;12.97;10.93;;;2.20;99.90;;;;;;5033458;28;20167;-70
2023/01/30 07:25:54;;;;;;;12.93;9.83;;;2.30;99.90;;;;;;5033187;28;20278;-69
2023/01/30 07:28:19;;;;;;;13.27;10.47;;;2.40;99.90;;;;;;5032962;28;20229;-69
2023/01/30 07:30:45;;;;;;;11.33;9.77;;;2.50;99.90;;;;;;5032799;28;20179;-69
2023/01/30 07:33:11;;;;;;;12.30;9.47;;;2.60;99.90;;;;;;5032870;28;20214;-70
2023/01/30 07:35:37;;;;;;;13.20;10.50;;;2.70;99.90;;;;;;5032605;28;20187;-70
2023/01/30 07:38:04;;;;;;;16.43;9.57;;;2.70;99.90;;;;;;5032770;28;20218;-69
2023/01/30 07:40:29;;;;;;;13.90;10.33;;;2.60;99.90;;;;;;5032979;28;20406;-70
2023/01/30 07:43:06;;;;;;;11.40;9.40;;;2.60;99.90;;;;;;5032911;28;20448;-70
2023/01/30 07:45:47;;;;;;;12.33;9.60;;;2.70;99.90;;;;;;5032578;28;20201;-70
2023/01/30 07:48:21;;;;;;;11.47;8.77;;;2.70;99.90;;;;;;5031736;28;20406;-70
2023/01/30 07:50:47;;;;;;;10.90;9.13;;;2.90;99.90;;;;;;5032250;28;20427;-70
2023/01/30 07:53:15;;;;;;;10.70;8.90;;;3.10;99.90;;;;;;5032322;28;20814;-71
2023/01/30 07:55:41;;;;;;;10.63;8.90;;;3.10;99.90;;;;;;5032904;28;20198;-71
2023/01/30 07:58:09;;;;;;;10.87;9.10;;;3.10;99.90;;;;;;5031446;28;20406;-70
2023/01/30 08:00:35;;;;;;;10.77;8.00;;;3.20;99.90;;;;;;5032883;28;20585;-71
2023/01/30 08:03:01;;;;;;;18.50;8.97;;;3.20;99.90;;;;;;5032473;28;20537;-70
2023/01/30 08:05:26;;;;;;;10.50;8.37;;;3.20;99.90;;;;;;5032540;28;20191;-70
2023/01/30 08:07:55;;;;;;;10.30;7.80;;;3.20;99.90;;;;;;5032178;28;20171;-70
2023/01/30 08:10:20;;;;;;;22.80;15.83;;;3.40;99.90;;;;;;5032897;28;20325;-70
2023/01/30 08:12:48;;;;;;;10.63;9.17;;;3.30;99.90;;;;;;5031425;28;20456;-70
2023/01/30 08:15:14;;;;;;;12.20;9.50;;;3.20;99.90;;;;;;5032758;28;20266;-70
2023/01/30 08:17:39;;;;;;;10.40;9.20;;;3.00;99.90;;;;;;5032317;28;20425;-70
2023/01/30 08:20:05;;;;;;;8.90;7.50;;;3.00;99.90;;;;;;5032677;28;20175;-70
2023/01/30 08:22:31;;;;;;;9.83;8.33;;;3.10;99.90;;;;;;5035900;28;20619;-70
2023/01/30 08:24:57;;;;;;;9.60;8.40;;;3.20;99.90;;;;;;5052536;28;20444;-70
2023/01/30 08:27:22;;;;;;;10.07;8.60;;;3.30;99.90;;;;;;5053544;28;20177;-71
2023/01/30 08:29:48;;;;;;;10.27;8.83;;;3.50;99.90;;;;;;5052646;28;20652;-70
2023/01/30 08:32:13;;;;;;;12.23;9.80;;;3.50;99.90;;;;;;5053151;28;20174;-70
2023/01/30 08:34:39;;;;;;;10.57;8.33;;;3.30;99.90;;;;;;5052732;28;20540;-71
2023/01/30 08:37:04;;;;;;;10.07;8.70;;;3.50;99.90;;;;;;5052168;28;20659;-71
2023/01/30 08:39:31;;;;;;;10.77;7.83;;;3.50;99.90;;;;;;5053164;28;20263;-71
2023/01/30 08:41:56;;;;;;;9.07;8.17;;;3.50;99.90;;;;;;5052699;28;20301;-71
2023/01/30 08:44:22;;;;;;;10.73;8.90;;;3.50;99.90;;;;;;5053006;28;20517;-71
2023/01/30 08:46:48;;;;;;;18.10;10.43;;;3.40;99.90;;;;;;5053024;28;20206;-72
2023/01/30 08:49:13;;;;;;;12.63;9.57;;;3.30;99.90;;;;;;5054751;28;20174;-70
2023/01/30 08:51:39;;;;;;;9.87;8.87;;;3.50;99.90;;;;;;5047279;28;20233;-70
2023/01/30 08:54:06;;;;;;;10.33;8.27;;;3.60;99.90;;;;;;5036151;28;20179;-70
2023/01/30 08:56:32;;;;;;;11.47;8.40;;;3.50;99.90;;;;;;5036243;28;20218;-70
2023/01/30 08:58:58;;;;;;;9.27;8.30;;;3.30;99.90;;;;;;5034783;28;20449;-70
2023/01/30 09:01:23;;;;;;;10.20;7.70;;;3.60;99.90;;;;;;5035824;28;20954;-70
2023/01/30 09:03:49;;;;;;;9.83;7.27;;;3.70;99.90;;;;;;5035892;28;20258;-71
2023/01/30 09:06:15;;;;;;;9.10;7.27;;;3.60;99.90;;;;;;5034304;28;20425;-71
2023/01/30 09:08:41;;;;;;;8.70;6.80;;;3.60;99.90;;;;;;5036334;28;20163;-71
2023/01/30 09:11:09;;;;;;;9.80;7.30;;;3.70;99.90;;;;;;5035605;28;20213;-71
2023/01/30 09:13:35;;;;;;;10.23;8.40;;;3.80;99.90;;;;;;5035465;28;20503;-71
2023/01/30 09:16:00;;;;;;;7.57;6.60;;;3.80;99.90;;;;;;5034323;28;20518;-71
2023/01/30 09:18:26;;;;;;;7.20;6.17;;;3.90;99.90;;;;;;5018289;28;20225;-71
2023/01/30 09:20:51;;;;;;;9.03;8.13;;;4.10;99.90;;;;;;5034710;28;20224;-71
2023/01/30 09:23:17;;;;;;;9.23;8.03;;;4.30;99.90;;;;;;5035321;28;20266;-71
2023/01/30 09:25:46;;;;;;;8.20;6.90;;;4.30;99.90;;;;;;5035861;28;20183;-71
2023/01/30 09:28:12;;;;;;;8.63;7.40;;;4.40;99.90;;;;;;5035589;28;20657;-71
2023/01/30 09:30:38;;;;;;;9.47;7.40;;;4.20;99.90;;;;;;5035278;28;20434;-71
2023/01/30 09:33:04;;;;;;;8.17;7.13;;;4.30;99.90;;;;;;5035355;28;20954;-71
2023/01/30 09:35:29;;;;;;;13.87;9.00;;;4.30;99.90;;;;;;5035081;28;20434;-71
2023/01/30 09:37:55;;;;;;;11.40;9.13;;;4.30;99.90;;;;;;5035111;28;20195;-72
2023/01/30 09:40:25;;;;;;;11.53;8.10;;;4.30;99.90;;;;;;5034932;28;20500;-71
2023/01/30 09:43:25;;;;;;;10.00;8.20;;;4.50;99.90;;;;;;5035532;28;20190;-71
2023/01/30 09:45:57;;;;;;;7.73;6.60;;;4.50;99.90;;;;;;5028163;28;20805;-71
2023/01/30 09:48:35;;;;;;;13.97;8.47;;;4.50;99.90;;;;;;5035597;28;20386;-71
2023/01/30 09:51:18;;;;;;;8.70;6.80;;;4.50;99.90;;;;;;5033207;28;20410;-72
2023/01/30 09:54:21;;;;;;;7.60;6.30;;;4.60;99.90;;;;;;5035721;28;20386;-71
2023/01/30 09:56:54;;;;;;;8.73;7.30;;;4.90;99.90;;;;;;5023289;28;20455;-71
2023/01/30 09:59:28;;;;;;;7.77;6.90;;;5.00;99.90;;;;;;5035135;28;20383;-72
2023/01/30 10:02:31;;;;;;;9.70;6.90;;;4.90;99.90;;;;;;5034918;28;20438;-71
2023/01/30 10:05:02;;;;;;;5.80;5.10;;;4.80;99.90;;;;;;5029836;28;20416;-72
2023/01/30 10:08:05;;;;;;;6.47;5.60;;;4.80;99.90;;;;;;5033721;28;20761;-71
2023/01/30 10:10:46;;;;;;;5.70;4.70;;;4.80;99.90;;;;;;5035466;28;20393;-71
2023/01/30 10:13:35;;;;;;;6.80;5.90;;;5.00;99.90;;;;;;5034948;28;20727;-72
2023/01/30 10:16:18;;;;;;;6.57;5.70;;;5.20;99.90;;;;;;5040606;28;20421;-72
2023/01/30 10:19:17;;;;;;;4.33;3.93;;;5.30;99.90;;;;;;5054222;28;20400;-72
2023/01/30 10:22:08;;;;;;;5.83;4.93;;;5.10;99.90;;;;;;5053166;28;20544;-71
2023/01/30 10:24:58;;;;;;;6.40;5.00;;;5.10;99.90;;;;;;5054596;28;20757;-71
2023/01/30 10:27:27;;;;;;;5.30;4.27;;;5.20;99.90;;;;;;5054722;28;20888;-71
2023/01/30 10:29:55;;;;;;;4.20;3.63;;;5.30;99.90;;;;;;5054756;28;20767;-71
2023/01/30 10:33:01;;;;;;;5.77;3.80;;;5.40;99.90;;;;;;5054573;28;20432;-71
2023/01/30 10:35:34;;;;;;;4.53;3.93;;;5.50;99.90;;;;;;5040757;28;20860;-71
2023/01/30 10:38:27;;;;;;;4.93;3.50;;;5.60;99.90;;;;;;5034521;28;20402;-71
2023/01/30 10:41:14;;;;;;;3.50;3.20;;;5.50;99.90;;;;;;5034432;28;20420;-70
2023/01/30 10:43:44;;;;;;;4.90;3.40;;;5.60;99.90;;;;;;5034354;28;20387;-70
2023/01/30 10:46:28;;;;;;;10.60;6.40;;;5.50;99.90;;;;;;5057468;23;20504;-70
2023/01/30 10:49:05;;;;;;;3.57;3.23;;;5.50;99.90;;;;;;4991025;28;20809;-71
2023/01/30 10:51:41;;;;;;;4.83;3.70;;;5.50;99.90;;;;;;5014002;28;20702;-71
2023/01/30 10:54:18;;;;;;;4.00;3.63;;;5.60;99.90;;;;;;5013599;28;20414;-71
2023/01/30 10:57:10;;;;;;;19.37;12.23;;;5.60;99.90;;;;;;5012593;28;20438;-70
2023/01/30 10:59:58;;;;;;;3.50;3.00;;;5.60;99.90;;;;;;5013344;28;20458;-71
2023/01/30 11:02:32;;;;;;;4.23;3.60;;;5.70;99.90;;;;;;5014570;28;20520;-71
2023/01/30 11:05:02;;;;;;;3.77;3.17;;;5.50;99.90;;;;;;5014691;28;20383;-70
2023/01/30 11:07:30;;;;;;;5.60;4.50;;;5.50;99.90;;;;;;4995395;28;20447;-70
2023/01/30 11:09:57;;;;;;;7.37;5.03;;;5.60;99.90;;;;;;4958454;28;20445;-70
2023/01/30 11:12:22;;;;;;;3.37;3.07;;;5.60;99.90;;;;;;4975004;28;20417;-70
2023/01/30 11:14:53;;;;;;;3.57;3.27;;;5.60;99.90;;;;;;4976598;28;20483;-71
2023/01/30 11:17:26;;;;;;;3.30;3.00;;;5.70;99.90;;;;;;4977432;28;20194;-71
2023/01/30 11:20:00;;;;;;;5.07;3.40;;;5.80;99.90;;;;;;4975464;28;20932;-70
2023/01/30 11:22:33;;;;;;;4.47;3.40;;;5.60;99.90;;;;;;4974553;28;20598;-70
2023/01/30 11:25:13;;;;;;;5.00;3.60;;;5.60;99.90;;;;;;4957675;28;20540;-70
2023/01/30 11:27:42;;;;;;;4.47;2.90;;;5.60;99.90;;;;;;4975045;28;20514;-71
2023/01/30 11:30:18;;;;;;;3.97;3.10;;;5.80;99.90;;;;;;4979104;28;20424;-71
2023/01/30 11:32:47;;;;;;;4.43;3.53;;;5.70;99.90;;;;;;5013417;28;20771;-71
2023/01/30 11:35:13;;;;;;;4.70;4.30;;;5.60;99.90;;;;;;5013880;28;20468;-71
2023/01/30 11:37:41;;;;;;;4.60;4.20;;;5.50;99.90;;;;;;5013917;28;20514;-71
2023/01/30 11:40:16;;;;;;;3.67;3.20;;;5.50;99.90;;;;;;5014564;28;20647;-71
2023/01/30 11:42:44;;;;;;;5.20;4.10;;;5.20;99.90;;;;;;5011041;28;20454;-71
2023/01/30 11:45:11;;;;;;;4.40;4.00;;;5.30;99.90;;;;;;5014053;28;20411;-71
2023/01/30 11:47:38;;;;;;;5.10;4.60;;;5.20;99.90;;;;;;4996119;28;20454;-71
2023/01/30 11:50:04;;;;;;;5.10;4.60;;;5.10;99.90;;;;;;4995912;28;20407;-71
2023/01/30 11:52:36;;;;;;;7.63;4.87;;;5.10;99.90;;;;;;5012083;28;20496;-71
2023/01/30 11:55:18;;;;;;;5.03;4.53;;;5.00;99.90;;;;;;5013906;28;20406;-71
2023/01/30 11:57:49;;;;;;;6.63;4.37;;;4.90;99.90;;;;;;5012876;28;20443;-70
2023/01/30 12:00:44;;;;;;;5.27;4.43;;;4.90;99.90;;;;;;5014334;28;20387;-72
2023/01/30 12:03:13;;;;;;;4.97;4.10;;;4.80;99.90;;;;;;5013177;28;20477;-71
2023/01/30 12:05:41;;;;;;;5.40;4.50;;;4.80;99.90;;;;;;5013645;28;20514;-72
2023/01/30 12:08:13;;;;;;;6.63;4.47;;;4.80;99.90;;;;;;5011882;28;20533;-71
2023/01/30 12:10:44;;;;;;;5.60;5.00;;;4.60;99.90;;;;;;5013374;28;20957;-72
2023/01/30 12:13:35;;;;;;;6.90;6.10;;;4.70;99.90;;;;;;5013734;28;20498;-71
2023/01/30 12:16:25;;;;;;;4.97;4.47;;;4.60;99.90;;;;;;5013365;28;20437;-71
2023/01/30 12:19:16;;;;;;;5.90;4.53;;;4.70;99.90;;;;;;4994934;28;20391;-70
2023/01/30 12:22:13;;;;;;;7.17;5.03;;;4.80;99.90;;;;;;4993638;28;20458;-71
2023/01/30 12:24:47;;;;;;;5.43;4.30;;;4.90;99.90;;;;;;5009892;28;20454;-70
2023/01/30 12:27:23;;;;;;;9.43;5.87;;;4.90;99.90;;;;;;5017753;28;20888;-71
2023/01/30 12:30:14;;;;;;;6.83;6.10;;;4.70;99.90;;;;;;5017692;28;20765;-71
2023/01/30 12:32:40;;;;;;;6.93;5.60;;;4.60;99.90;;;;;;5017206;28;20399;-71
2023/01/30 12:35:48;;;;;;;6.83;5.17;;;4.60;99.90;;;;;;5017209;28;20909;-72
2023/01/30 12:38:25;;;;;;;5.80;4.70;;;4.70;99.90;;;;;;5016409;28;20211;-71
2023/01/30 12:41:18;;;;;;;5.80;4.70;;;4.60;99.90;;;;;;5017090;28;20383;-72
2023/01/30 12:43:52;;;;;;;6.17;5.57;;;4.60;99.90;;;;;;5016804;28;20427;-71
2023/01/30 12:46:33;;;;;;;5.00;4.40;;;4.60;99.90;;;;;;5015223;28;20394;-72
2023/01/30 12:49:37;;;;;;;5.90;4.70;;;4.50;99.90;;;;;;5016320;28;20928;-71
2023/01/30 12:52:37;;;;;;;4.40;3.80;;;4.60;99.90;;;;;;5014595;28;20422;-71
2023/01/30 12:55:21;;;;;;;6.10;5.20;;;4.60;99.90;;;;;;4984112;28;20837;-72
2023/01/30 12:57:51;;;;;;;6.07;5.20;;;4.50;99.90;;;;;;5015603;28;20438;-70
2023/01/30 13:00:22;;;;;;;6.27;4.33;;;4.50;99.90;;;;;;5016586;28;20446;-71
2023/01/30 13:03:26;;;;;;;8.30;6.27;;;4.40;99.90;;;;;;5017156;28;20446;-71
2023/01/30 13:05:59;;;;;;;4.60;4.20;;;4.40;99.90;;;;;;5016107;28;20403;-71
2023/01/30 13:08:32;;;;;;;9.40;5.93;;;4.60;99.90;;;;;;5014321;28;20813;-72
2023/01/30 13:11:12;;;;;;;6.90;4.47;;;4.60;99.90;;;;;;5005320;28;20419;-72
2023/01/30 13:13:47;;;;;;;5.70;5.00;;;4.60;99.90;;;;;;4997376;28;20546;-71